sensor_id;sensor_type;location;lat;lon;timestamp;pressure;altitude;pressure_sealevel;temperature;humidity
44839;BME280;30576;42.098;24.876;2023-02-27T00:00:47;98961.22;;;16.77;49.03
44839;BME280;30576;42.098;24.876;2023-02-27T00:03:12;98966.88;;;16.88;48.46
44839;BME280;30576;42.098;24.876;2023-02-27T00:05:40;98932.78;;;16.77;48.39
44839;BME280;30576;42.098;24.876;2023-02-27T00:08:06;98932.47;;;16.83;48.39
44839;BME280;30576;42.098;24.876;2023-02-27T00:10:31;98917.84;;;16.92;47.65
44839;BME280;30576;42.098;24.876;2023-02-27T00:12:56;98935.13;;;16.83;48.42
44839;BME280;30576;42.098;24.876;2023-02-27T00:15:22;98936.09;;;17.16;47.76
44839;BME280;30576;42.098;24.876;2023-02-27T00:17:47;98947.88;;;17.12;47.71
44839;BME280;30576;42.098;24.876;2023-02-27T00:20:14;98935.63;;;16.92;48.25
44839;BME280;30576;42.098;24.876;2023-02-27T00:22:41;98926.25;;;17.00;48.07
44839;BME280;30576;42.098;24.876;2023-02-27T00:25:08;98942.41;;;17.31;47.33
44839;BME280;30576;42.098;24.876;2023-02-27T00:27:34;98950.31;;;17.48;47.27
44839;BME280;30576;42.098;24.876;2023-02-27T00:30:00;98928.56;;;17.24;47.15
44839;BME280;30576;42.098;24.876;2023-02-27T00:32:25;98936.47;;;17.26;47.43
44839;BME280;30576;42.098;24.876;2023-02-27T00:34:51;98919.66;;;17.08;47.97
44839;BME280;30576;42.098;24.876;2023-02-27T00:37:17;98957.56;;;17.13;48.40
44839;BME280;30576;42.098;24.876;2023-02-27T00:39:42;98902.84;;;16.56;49.10
44839;BME280;30576;42.098;24.876;2023-02-27T00:42:07;98965.28;;;17.02;48.80
44839;BME280;30576;42.098;24.876;2023-02-27T00:44:33;98927.53;;;16.76;48.92
44839;BME280;30576;42.098;24.876;2023-02-27T00:46:58;98967.56;;;16.74;49.40
44839;BME280;30576;42.098;24.876;2023-02-27T00:49:24;98967.44;;;16.42;49.72
44839;BME280;30576;42.098;24.876;2023-02-27T00:51:50;98965.09;;;16.00;51.24
44839;BME280;30576;42.098;24.876;2023-02-27T00:54:16;98951.63;;;15.66;51.33
44839;BME280;30576;42.098;24.876;2023-02-27T00:56:41;98955.91;;;15.50;51.55
44839;BME280;30576;42.098;24.876;2023-02-27T00:59:07;98931.88;;;15.34;51.89
44839;BME280;30576;42.098;24.876;2023-02-27T01:01:33;98923.25;;;15.48;50.68
44839;BME280;30576;42.098;24.876;2023-02-27T01:03:58;98924.25;;;15.45;50.99
44839;BME280;30576;42.098;24.876;2023-02-27T01:06:24;98964.69;;;15.71;50.82
44839;BME280;30576;42.098;24.876;2023-02-27T01:08:49;98947.78;;;15.72;51.01
44839;BME280;30576;42.098;24.876;2023-02-27T01:11:14;98936.88;;;15.59;51.00
44839;BME280;30576;42.098;24.876;2023-02-27T01:13:40;98983.59;;;15.84;50.82
44839;BME280;30576;42.098;24.876;2023-02-27T01:16:06;98968.72;;;15.80;50.97
44839;BME280;30576;42.098;24.876;2023-02-27T01:18:32;98967.44;;;16.06;50.80
44839;BME280;30576;42.098;24.876;2023-02-27T01:20:58;98926.03;;;16.00;50.11
44839;BME280;30576;42.098;24.876;2023-02-27T01:23:23;98943.72;;;16.01;50.45
44839;BME280;30576;42.098;24.876;2023-02-27T01:25:49;98901.09;;;15.85;50.12
44839;BME280;30576;42.098;24.876;2023-02-27T01:28:15;98944.31;;;16.25;49.79
44839;BME280;30576;42.098;24.876;2023-02-27T01:30:41;98972.81;;;16.41;49.45
44839;BME280;30576;42.098;24.876;2023-02-27T01:33:07;98970.56;;;16.33;49.50
44839;BME280;30576;42.098;24.876;2023-02-27T01:35:33;98949.97;;;16.00;49.95
44839;BME280;30576;42.098;24.876;2023-02-27T01:37:59;98954.47;;;16.17;50.00
44839;BME280;30576;42.098;24.876;2023-02-27T01:40:24;98958.97;;;15.80;51.84
44839;BME280;30576;42.098;24.876;2023-02-27T01:42:51;98942.53;;;15.70;51.45
44839;BME280;30576;42.098;24.876;2023-02-27T01:47:48;98961.94;;;15.91;49.51
44839;BME280;30576;42.098;24.876;2023-02-27T01:50:16;98963.34;;;16.18;49.26
44839;BME280;30576;42.098;24.876;2023-02-27T01:52:44;98962.16;;;16.23;49.48
44839;BME280;30576;42.098;24.876;2023-02-27T01:55:14;99011.16;;;16.00;49.75
44839;BME280;30576;42.098;24.876;2023-02-27T01:57:40;99001.50;;;15.21;54.60
44839;BME280;30576;42.098;24.876;2023-02-27T02:00:08;99024.69;;;14.97;55.87
44839;BME280;30576;42.098;24.876;2023-02-27T02:02:39;99021.34;;;14.29;57.91
44839;BME280;30576;42.098;24.876;2023-02-27T02:05:06;99008.25;;;13.80;59.47
44839;BME280;30576;42.098;24.876;2023-02-27T02:07:33;99061.56;;;14.40;58.31
44839;BME280;30576;42.098;24.876;2023-02-27T02:10:03;99037.19;;;14.53;57.58
44839;BME280;30576;42.098;24.876;2023-02-27T02:12:35;99022.19;;;14.51;57.41
44839;BME280;30576;42.098;24.876;2023-02-27T02:15:02;99039.28;;;14.66;56.54
44839;BME280;30576;42.098;24.876;2023-02-27T02:23:50;99037.38;;;15.11;54.40
44839;BME280;30576;42.098;24.876;2023-02-27T02:27:04;99046.00;;;14.75;55.68
44839;BME280;30576;42.098;24.876;2023-02-27T02:35:39;99055.22;;;14.87;54.98
44839;BME280;30576;42.098;24.876;2023-02-27T02:46:43;99059.00;;;13.93;58.54
44839;BME280;30576;42.098;24.876;2023-02-27T02:49:32;99060.75;;;13.94;57.70
44839;BME280;30576;42.098;24.876;2023-02-27T02:54:45;99074.25;;;14.10;58.14
44839;BME280;30576;42.098;24.876;2023-02-27T02:57:26;99057.00;;;14.00;57.69
44839;BME280;30576;42.098;24.876;2023-02-27T03:00:00;99073.44;;;13.86;58.73
44839;BME280;30576;42.098;24.876;2023-02-27T03:02:33;99084.38;;;14.00;57.88
44839;BME280;30576;42.098;24.876;2023-02-27T03:07:49;99083.53;;;13.27;60.13
44839;BME280;30576;42.098;24.876;2023-02-27T03:12:54;99099.47;;;13.51;59.41
44839;BME280;30576;42.098;24.876;2023-02-27T03:15:26;99062.03;;;13.60;59.00
44839;BME280;30576;42.098;24.876;2023-02-27T03:20:33;99072.97;;;13.51;59.59
44839;BME280;30576;42.098;24.876;2023-02-27T03:23:02;99074.13;;;13.67;58.42
44839;BME280;30576;42.098;24.876;2023-02-27T03:25:30;99112.00;;;13.71;58.50
44839;BME280;30576;42.098;24.876;2023-02-27T03:28:00;99106.94;;;13.39;59.77
44839;BME280;30576;42.098;24.876;2023-02-27T03:30:44;99106.00;;;13.40;59.05
44839;BME280;30576;42.098;24.876;2023-02-27T03:33:24;99131.66;;;13.64;59.07
44839;BME280;30576;42.098;24.876;2023-02-27T03:35:57;99139.28;;;13.73;58.84
44839;BME280;30576;42.098;24.876;2023-02-27T03:39:00;99151.72;;;13.47;59.86
44839;BME280;30576;42.098;24.876;2023-02-27T03:41:51;99171.13;;;13.48;60.19
44839;BME280;30576;42.098;24.876;2023-02-27T03:46:53;99194.38;;;13.39;59.50
44839;BME280;30576;42.098;24.876;2023-02-27T03:49:18;99154.91;;;13.30;58.70
44839;BME280;30576;42.098;24.876;2023-02-27T03:51:44;99150.75;;;13.23;59.45
44839;BME280;30576;42.098;24.876;2023-02-27T03:54:11;99200.47;;;13.41;59.04
44839;BME280;30576;42.098;24.876;2023-02-27T03:59:09;99202.38;;;13.10;59.66
44839;BME280;30576;42.098;24.876;2023-02-27T04:01:35;99168.97;;;12.79;60.11
44839;BME280;30576;42.098;24.876;2023-02-27T04:04:08;99203.47;;;12.76;60.39
44839;BME280;30576;42.098;24.876;2023-02-27T04:06:36;99222.94;;;12.45;62.17
44839;BME280;30576;42.098;24.876;2023-02-27T04:12:14;99208.16;;;12.08;63.65
44839;BME280;30576;42.098;24.876;2023-02-27T04:17:29;99208.47;;;11.97;64.47
44839;BME280;30576;42.098;24.876;2023-02-27T04:22:54;99263.25;;;11.90;65.11
44839;BME280;30576;42.098;24.876;2023-02-27T04:25:38;99271.19;;;11.90;67.22
44839;BME280;30576;42.098;24.876;2023-02-27T04:33:42;99294.00;;;12.57;64.24
44839;BME280;30576;42.098;24.876;2023-02-27T04:36:37;99285.38;;;12.80;63.70
44839;BME280;30576;42.098;24.876;2023-02-27T04:39:07;99289.63;;;12.86;63.14
44839;BME280;30576;42.098;24.876;2023-02-27T04:41:47;99294.63;;;12.67;62.89
44839;BME280;30576;42.098;24.876;2023-02-27T04:44:15;99281.97;;;12.47;63.20
44839;BME280;30576;42.098;24.876;2023-02-27T04:46:43;99312.59;;;12.85;62.98
44839;BME280;30576;42.098;24.876;2023-02-27T04:49:20;99324.13;;;12.83;63.04
44839;BME280;30576;42.098;24.876;2023-02-27T04:52:10;99249.91;;;12.28;63.13
44839;BME280;30576;42.098;24.876;2023-02-27T04:54:54;99307.41;;;12.82;61.68
44839;BME280;30576;42.098;24.876;2023-02-27T04:57:31;99446.84;;;12.14;65.31
44839;BME280;30576;42.098;24.876;2023-02-27T05:00:00;99448.28;;;11.90;66.79
44839;BME280;30576;42.098;24.876;2023-02-27T05:02:37;99445.16;;;12.10;65.31
44839;BME280;30576;42.098;24.876;2023-02-27T05:05:10;99478.00;;;12.70;62.68
44839;BME280;30576;42.098;24.876;2023-02-27T05:07:41;99501.19;;;12.94;61.61
44839;BME280;30576;42.098;24.876;2023-02-27T05:10:24;99534.25;;;13.12;60.90
44839;BME280;30576;42.098;24.876;2023-02-27T05:12:56;99537.63;;;13.17;60.41
44839;BME280;30576;42.098;24.876;2023-02-27T05:18:06;99542.06;;;13.16;60.13
44839;BME280;30576;42.098;24.876;2023-02-27T05:21:00;99546.94;;;12.99;61.74
44839;BME280;30576;42.098;24.876;2023-02-27T05:23:44;99521.91;;;12.78;62.48
44839;BME280;30576;42.098;24.876;2023-02-27T05:26:17;99538.50;;;12.84;62.82
44839;BME280;30576;42.098;24.876;2023-02-27T05:34:24;99538.16;;;12.97;63.22
44839;BME280;30576;42.098;24.876;2023-02-27T05:37:04;99526.31;;;12.77;65.12
44839;BME280;30576;42.098;24.876;2023-02-27T05:39:35;99496.88;;;12.57;65.63
44839;BME280;30576;42.098;24.876;2023-02-27T05:42:37;99513.28;;;12.69;65.88
44839;BME280;30576;42.098;24.876;2023-02-27T05:45:17;99539.16;;;12.93;66.21
44839;BME280;30576;42.098;24.876;2023-02-27T05:48:01;99523.56;;;12.82;66.92
44839;BME280;30576;42.098;24.876;2023-02-27T05:50:31;99518.91;;;12.92;66.90
44839;BME280;30576;42.098;24.876;2023-02-27T05:53:01;99516.88;;;13.31;66.21
44839;BME280;30576;42.098;24.876;2023-02-27T05:55:44;99494.72;;;13.35;65.57
44839;BME280;30576;42.098;24.876;2023-02-27T05:58:21;99553.47;;;13.50;66.57
44839;BME280;30576;42.098;24.876;2023-02-27T06:00:58;99548.97;;;13.53;66.06
44839;BME280;30576;42.098;24.876;2023-02-27T06:03:26;99495.41;;;13.72;65.06
44839;BME280;30576;42.098;24.876;2023-02-27T06:05:53;99473.97;;;13.79;64.15
44839;BME280;30576;42.098;24.876;2023-02-27T06:08:20;99452.06;;;14.01;63.71
44839;BME280;30576;42.098;24.876;2023-02-27T06:10:46;99460.31;;;14.19;63.03
44839;BME280;30576;42.098;24.876;2023-02-27T06:13:14;99454.84;;;14.23;62.03
44839;BME280;30576;42.098;24.876;2023-02-27T06:15:39;99481.66;;;14.41;62.01
44839;BME280;30576;42.098;24.876;2023-02-27T06:18:05;99448.38;;;14.05;63.21
44839;BME280;30576;42.098;24.876;2023-02-27T06:20:30;99483.50;;;13.85;64.13
44839;BME280;30576;42.098;24.876;2023-02-27T06:22:56;99518.75;;;13.89;64.76
44839;BME280;30576;42.098;24.876;2023-02-27T06:25:21;99497.13;;;13.13;67.88
44839;BME280;30576;42.098;24.876;2023-02-27T06:27:47;99513.16;;;13.40;66.59
44839;BME280;30576;42.098;24.876;2023-02-27T06:30:13;99530.38;;;13.55;67.08
44839;BME280;30576;42.098;24.876;2023-02-27T06:32:39;99497.53;;;13.29;67.15
44839;BME280;30576;42.098;24.876;2023-02-27T06:35:04;99548.47;;;13.70;67.08
44839;BME280;30576;42.098;24.876;2023-02-27T06:37:31;99506.78;;;13.75;66.07
44839;BME280;30576;42.098;24.876;2023-02-27T06:39:56;99542.91;;;13.79;66.08
44839;BME280;30576;42.098;24.876;2023-02-27T06:42:22;99540.47;;;13.72;66.98
44839;BME280;30576;42.098;24.876;2023-02-27T06:44:47;99515.88;;;13.67;66.50
44839;BME280;30576;42.098;24.876;2023-02-27T06:47:12;99532.25;;;13.81;66.87
44839;BME280;30576;42.098;24.876;2023-02-27T06:49:38;99535.59;;;13.58;67.40
44839;BME280;30576;42.098;24.876;2023-02-27T06:52:03;99544.41;;;13.58;67.22
44839;BME280;30576;42.098;24.876;2023-02-27T06:54:28;99496.22;;;13.46;66.81
44839;BME280;30576;42.098;24.876;2023-02-27T06:56:54;99549.06;;;13.50;67.24
44839;BME280;30576;42.098;24.876;2023-02-27T06:59:19;99554.59;;;13.42;68.48
44839;BME280;30576;42.098;24.876;2023-02-27T07:01:45;99573.22;;;13.39;67.84
44839;BME280;30576;42.098;24.876;2023-02-27T07:04:13;99576.97;;;13.92;66.75
44839;BME280;30576;42.098;24.876;2023-02-27T07:06:39;99536.84;;;13.74;66.59
44839;BME280;30576;42.098;24.876;2023-02-27T07:09:04;99523.31;;;14.12;65.44
44839;BME280;30576;42.098;24.876;2023-02-27T07:11:30;99564.53;;;14.77;63.67
44839;BME280;30576;42.098;24.876;2023-02-27T07:13:55;99572.72;;;14.96;62.51
44839;BME280;30576;42.098;24.876;2023-02-27T07:16:20;99572.69;;;14.71;63.63
44839;BME280;30576;42.098;24.876;2023-02-27T07:18:46;99576.75;;;14.83;62.67
44839;BME280;30576;42.098;24.876;2023-02-27T07:21:11;99590.59;;;15.16;61.48
44839;BME280;30576;42.098;24.876;2023-02-27T07:23:36;99554.19;;;15.20;60.76
44839;BME280;30576;42.098;24.876;2023-02-27T07:26:02;99582.31;;;15.26;59.59
44839;BME280;30576;42.098;24.876;2023-02-27T07:28:28;99544.50;;;14.67;61.16
44839;BME280;30576;42.098;24.876;2023-02-27T07:30:53;99541.75;;;14.43;61.79
44839;BME280;30576;42.098;24.876;2023-02-27T07:33:20;99546.41;;;14.63;61.42
44839;BME280;30576;42.098;24.876;2023-02-27T07:35:46;99583.75;;;14.84;60.63
44839;BME280;30576;42.098;24.876;2023-02-27T07:38:11;99566.03;;;14.58;61.10
44839;BME280;30576;42.098;24.876;2023-02-27T07:40:37;99598.84;;;14.83;60.96
44839;BME280;30576;42.098;24.876;2023-02-27T07:43:02;99558.16;;;14.83;59.89
44839;BME280;30576;42.098;24.876;2023-02-27T07:45:28;99587.31;;;15.10;59.64
44839;BME280;30576;42.098;24.876;2023-02-27T07:47:53;99552.63;;;15.14;58.30
44839;BME280;30576;42.098;24.876;2023-02-27T07:50:19;99569.41;;;15.15;58.67
44839;BME280;30576;42.098;24.876;2023-02-27T07:52:44;99610.88;;;15.44;59.14
44839;BME280;30576;42.098;24.876;2023-02-27T07:55:11;99573.38;;;15.28;59.23
44839;BME280;30576;42.098;24.876;2023-02-27T07:57:37;99583.09;;;15.29;59.32
44839;BME280;30576;42.098;24.876;2023-02-27T08:00:04;99582.16;;;15.05;59.90
44839;BME280;30576;42.098;24.876;2023-02-27T08:02:31;99595.22;;;14.86;60.16
44839;BME280;30576;42.098;24.876;2023-02-27T08:04:56;99581.25;;;15.06;59.18
44839;BME280;30576;42.098;24.876;2023-02-27T08:07:22;99591.69;;;15.36;59.09
44839;BME280;30576;42.098;24.876;2023-02-27T08:09:47;99588.22;;;15.34;59.00
44839;BME280;30576;42.098;24.876;2023-02-27T08:12:13;99624.88;;;15.49;58.37
44839;BME280;30576;42.098;24.876;2023-02-27T08:14:38;99621.84;;;15.60;57.94
44839;BME280;30576;42.098;24.876;2023-02-27T08:17:03;99615.06;;;15.75;57.72
44839;BME280;30576;42.098;24.876;2023-02-27T08:19:29;99607.59;;;15.61;57.24
44839;BME280;30576;42.098;24.876;2023-02-27T08:21:54;99612.06;;;16.08;56.21
44839;BME280;30576;42.098;24.876;2023-02-27T08:24:20;99632.97;;;16.41;55.75
44839;BME280;30576;42.098;24.876;2023-02-27T08:26:45;99604.56;;;15.96;56.06
44839;BME280;30576;42.098;24.876;2023-02-27T08:29:11;99580.00;;;16.11;56.08
44839;BME280;30576;42.098;24.876;2023-02-27T08:31:36;99597.72;;;16.12;55.50
44839;BME280;30576;42.098;24.876;2023-02-27T08:34:02;99594.44;;;16.27;54.10
44839;BME280;30576;42.098;24.876;2023-02-27T08:36:27;99585.13;;;16.39;53.09
44839;BME280;30576;42.098;24.876;2023-02-27T08:38:53;99610.53;;;16.91;53.17
44839;BME280;30576;42.098;24.876;2023-02-27T08:41:18;99598.03;;;17.13;52.26
44839;BME280;30576;42.098;24.876;2023-02-27T08:43:43;99625.75;;;17.69;50.54
44839;BME280;30576;42.098;24.876;2023-02-27T08:46:09;99618.94;;;17.23;50.79
44839;BME280;30576;42.098;24.876;2023-02-27T08:48:35;99626.84;;;17.45;50.62
44839;BME280;30576;42.098;24.876;2023-02-27T08:51:00;99614.13;;;17.91;49.56
44839;BME280;30576;42.098;24.876;2023-02-27T08:53:26;99616.88;;;18.08;49.23
44839;BME280;30576;42.098;24.876;2023-02-27T08:55:52;99655.31;;;18.61;47.71
44839;BME280;30576;42.098;24.876;2023-02-27T08:58:18;99612.56;;;18.42;48.89
44839;BME280;30576;42.098;24.876;2023-02-27T09:00:44;99631.66;;;18.71;47.80
44839;BME280;30576;42.098;24.876;2023-02-27T09:03:09;99617.94;;;18.23;47.43
44839;BME280;30576;42.098;24.876;2023-02-27T09:05:36;99614.69;;;17.98;47.83
44839;BME280;30576;42.098;24.876;2023-02-27T09:08:03;99626.19;;;18.19;47.32
44839;BME280;30576;42.098;24.876;2023-02-27T09:10:30;99640.03;;;18.46;47.06
44839;BME280;30576;42.098;24.876;2023-02-27T09:12:57;99638.34;;;18.43;47.74
44839;BME280;30576;42.098;24.876;2023-02-27T09:15:23;99636.00;;;18.55;45.94
44839;BME280;30576;42.098;24.876;2023-02-27T09:17:49;99665.44;;;18.91;46.04
44839;BME280;30576;42.098;24.876;2023-02-27T09:20:14;99661.25;;;18.86;46.36
44839;BME280;30576;42.098;24.876;2023-02-27T09:22:40;99629.41;;;18.45;46.53
44839;BME280;30576;42.098;24.876;2023-02-27T09:25:06;99633.78;;;18.82;46.52
44839;BME280;30576;42.098;24.876;2023-02-27T09:27:31;99593.31;;;18.72;45.71
44839;BME280;30576;42.098;24.876;2023-02-27T09:29:57;99624.81;;;18.85;45.88
44839;BME280;30576;42.098;24.876;2023-02-27T09:32:26;99620.75;;;18.76;46.22
44839;BME280;30576;42.098;24.876;2023-02-27T09:34:52;99640.06;;;19.18;45.35
44839;BME280;30576;42.098;24.876;2023-02-27T09:37:17;99640.59;;;18.89;46.46
44839;BME280;30576;42.098;24.876;2023-02-27T09:39:49;99598.50;;;18.75;47.07
44839;BME280;30576;42.098;24.876;2023-02-27T09:42:20;99662.28;;;19.53;46.38
44839;BME280;30576;42.098;24.876;2023-02-27T09:44:50;99660.47;;;19.54;44.87
44839;BME280;30576;42.098;24.876;2023-02-27T09:47:26;99639.88;;;19.56;44.03
44839;BME280;30576;42.098;24.876;2023-02-27T09:50:01;99666.28;;;19.79;43.44
44839;BME280;30576;42.098;24.876;2023-02-27T09:52:30;99628.63;;;19.49;44.36
44839;BME280;30576;42.098;24.876;2023-02-27T09:54:56;99589.16;;;19.37;43.94
44839;BME280;30576;42.098;24.876;2023-02-27T09:57:31;99592.22;;;19.29;43.46
44839;BME280;30576;42.098;24.876;2023-02-27T10:00:25;99639.19;;;19.35;43.28
44839;BME280;30576;42.098;24.876;2023-02-27T10:05:33;99643.28;;;19.24;44.84
44839;BME280;30576;42.098;24.876;2023-02-27T10:08:09;99623.63;;;19.08;43.87
44839;BME280;30576;42.098;24.876;2023-02-27T10:10:51;99641.63;;;19.04;44.79
44839;BME280;30576;42.098;24.876;2023-02-27T10:16:14;99637.94;;;18.70;45.46
44839;BME280;30576;42.098;24.876;2023-02-27T10:18:57;99648.53;;;18.72;44.97
44839;BME280;30576;42.098;24.876;2023-02-27T10:21:36;99646.31;;;18.63;45.09
44839;BME280;30576;42.098;24.876;2023-02-27T10:26:39;99623.09;;;19.19;43.57
44839;BME280;30576;42.098;24.876;2023-02-27T10:31:40;99616.78;;;19.37;42.71
44839;BME280;30576;42.098;24.876;2023-02-27T10:34:10;99615.84;;;19.21;44.03
44839;BME280;30576;42.098;24.876;2023-02-27T10:36:37;99564.56;;;18.77;44.13
44839;BME280;30576;42.098;24.876;2023-02-27T10:39:07;99599.34;;;19.12;44.41
44839;BME280;30576;42.098;24.876;2023-02-27T10:41:35;99606.19;;;19.52;44.08
44839;BME280;30576;42.098;24.876;2023-02-27T10:44:02;99604.91;;;19.25;43.89
44839;BME280;30576;42.098;24.876;2023-02-27T10:46:31;99608.28;;;19.29;43.18
44839;BME280;30576;42.098;24.876;2023-02-27T10:48:59;99614.50;;;19.12;43.72
44839;BME280;30576;42.098;24.876;2023-02-27T10:51:33;99613.47;;;19.65;43.00
44839;BME280;30576;42.098;24.876;2023-02-27T10:54:20;99598.69;;;19.58;42.88
44839;BME280;30576;42.098;24.876;2023-02-27T10:56:55;99599.06;;;20.01;41.98
44839;BME280;30576;42.098;24.876;2023-02-27T10:59:32;99618.59;;;20.19;41.80
44839;BME280;30576;42.098;24.876;2023-02-27T11:02:03;99538.91;;;19.59;42.52
44839;BME280;30576;42.098;24.876;2023-02-27T11:04:36;99570.66;;;19.99;41.93
44839;BME280;30576;42.098;24.876;2023-02-27T11:07:08;99587.66;;;19.82;42.33
44839;BME280;30576;42.098;24.876;2023-02-27T11:09:35;99561.53;;;19.70;43.62
44839;BME280;30576;42.098;24.876;2023-02-27T11:12:25;99565.66;;;19.75;43.24
44839;BME280;30576;42.098;24.876;2023-02-27T11:14:53;99587.72;;;19.47;43.42
44839;BME280;30576;42.098;24.876;2023-02-27T11:17:33;99564.78;;;19.92;42.90
44839;BME280;30576;42.098;24.876;2023-02-27T11:20:01;99544.16;;;20.10;42.67
44839;BME280;30576;42.098;24.876;2023-02-27T11:22:31;99572.31;;;20.17;42.58
44839;BME280;30576;42.098;24.876;2023-02-27T11:25:18;99596.31;;;19.70;42.88
44839;BME280;30576;42.098;24.876;2023-02-27T11:27:45;99548.75;;;19.75;42.08
44839;BME280;30576;42.098;24.876;2023-02-27T11:30:27;99542.31;;;19.45;42.78
44839;BME280;30576;42.098;24.876;2023-02-27T11:32:55;99563.06;;;19.58;44.19
44839;BME280;30576;42.098;24.876;2023-02-27T11:35:36;99546.25;;;19.56;43.19
44839;BME280;30576;42.098;24.876;2023-02-27T11:38:06;99551.34;;;19.76;42.80
44839;BME280;30576;42.098;24.876;2023-02-27T11:40:48;99552.09;;;19.96;42.64
44839;BME280;30576;42.098;24.876;2023-02-27T11:43:20;99555.72;;;20.11;42.43
44839;BME280;30576;42.098;24.876;2023-02-27T11:45:55;99546.81;;;20.10;42.58
44839;BME280;30576;42.098;24.876;2023-02-27T11:48:34;99529.13;;;20.24;43.00
44839;BME280;30576;42.098;24.876;2023-02-27T11:56:33;99549.06;;;20.64;41.69
44839;BME280;30576;42.098;24.876;2023-02-27T12:04:16;99555.03;;;20.69;41.83
44839;BME280;30576;42.098;24.876;2023-02-27T12:06:57;99578.34;;;20.83;40.34
44839;BME280;30576;42.098;24.876;2023-02-27T12:09:43;99541.88;;;20.81;40.81
44839;BME280;30576;42.098;24.876;2023-02-27T12:12:23;99557.97;;;20.81;40.89
44839;BME280;30576;42.098;24.876;2023-02-27T12:14:59;99563.28;;;20.97;40.53
44839;BME280;30576;42.098;24.876;2023-02-27T12:17:34;99532.75;;;20.69;40.96
44839;BME280;30576;42.098;24.876;2023-02-27T12:22:51;99543.41;;;20.38;40.81
44839;BME280;30576;42.098;24.876;2023-02-27T12:25:34;99553.84;;;20.43;40.85
44839;BME280;30576;42.098;24.876;2023-02-27T12:31:09;99545.69;;;20.30;41.13
44839;BME280;30576;42.098;24.876;2023-02-27T12:33:45;99524.81;;;20.51;40.60
44839;BME280;30576;42.098;24.876;2023-02-27T12:36:13;99544.75;;;20.78;40.76
44839;BME280;30576;42.098;24.876;2023-02-27T12:38:39;99522.88;;;20.69;40.84
44839;BME280;30576;42.098;24.876;2023-02-27T12:46:55;99544.06;;;21.48;39.11
44839;BME280;30576;42.098;24.876;2023-02-27T12:49:33;99515.50;;;21.46;38.72
44839;BME280;30576;42.098;24.876;2023-02-27T12:55:09;99526.25;;;21.32;39.20
44839;BME280;30576;42.098;24.876;2023-02-27T13:00:47;99536.22;;;21.59;39.50
44839;BME280;30576;42.098;24.876;2023-02-27T13:03:39;99531.59;;;21.32;39.47
44839;BME280;30576;42.098;24.876;2023-02-27T13:16:56;99524.13;;;21.80;39.06
44839;BME280;30576;42.098;24.876;2023-02-27T13:19:32;99515.03;;;21.83;37.59
44839;BME280;30576;42.098;24.876;2023-02-27T13:24:50;99536.19;;;21.73;39.00
44839;BME280;30576;42.098;24.876;2023-02-27T13:27:26;99532.28;;;21.79;38.09
44839;BME280;30576;42.098;24.876;2023-02-27T13:35:14;99506.50;;;22.45;37.17
44839;BME280;30576;42.098;24.876;2023-02-27T13:37:54;99502.59;;;22.37;37.30
44839;BME280;30576;42.098;24.876;2023-02-27T13:40:34;99515.94;;;21.96;38.04
44839;BME280;30576;42.098;24.876;2023-02-27T13:43:04;99459.94;;;21.34;38.72
44839;BME280;30576;42.098;24.876;2023-02-27T13:45:52;99517.72;;;21.69;38.16
44839;BME280;30576;42.098;24.876;2023-02-27T13:48:43;99513.88;;;21.44;38.60
44839;BME280;30576;42.098;24.876;2023-02-27T13:56:44;99502.81;;;21.92;38.19
44839;BME280;30576;42.098;24.876;2023-02-27T14:01:58;99501.03;;;22.05;38.01
44839;BME280;30576;42.098;24.876;2023-02-27T14:04:26;99486.88;;;22.03;38.22
44839;BME280;30576;42.098;24.876;2023-02-27T14:07:10;99467.59;;;21.96;37.67
44839;BME280;30576;42.098;24.876;2023-02-27T14:09:41;99500.88;;;22.21;37.64
44839;BME280;30576;42.098;24.876;2023-02-27T14:14:54;99488.13;;;21.97;39.07
44839;BME280;30576;42.098;24.876;2023-02-27T14:20:10;99437.22;;;21.40;40.65
44839;BME280;30576;42.098;24.876;2023-02-27T14:31:06;99515.41;;;21.77;39.42
44839;BME280;30576;42.098;24.876;2023-02-27T14:33:53;99480.16;;;21.40;39.76
44839;BME280;30576;42.098;24.876;2023-02-27T14:36:22;99522.88;;;21.72;40.11
44839;BME280;30576;42.098;24.876;2023-02-27T14:38:52;99488.03;;;21.57;40.87
44839;BME280;30576;42.098;24.876;2023-02-27T14:41:33;99507.66;;;21.72;41.07
44839;BME280;30576;42.098;24.876;2023-02-27T14:44:01;99500.50;;;21.58;40.56
44839;BME280;30576;42.098;24.876;2023-02-27T14:49:01;99504.09;;;21.43;40.48
44839;BME280;30576;42.098;24.876;2023-02-27T14:51:33;99481.88;;;21.12;41.02
44839;BME280;30576;42.098;24.876;2023-02-27T14:54:10;99474.22;;;21.06;40.67
44839;BME280;30576;42.098;24.876;2023-02-27T14:56:37;99497.88;;;21.28;40.25
44839;BME280;30576;42.098;24.876;2023-02-27T14:59:23;99520.09;;;21.30;40.56
44839;BME280;30576;42.098;24.876;2023-02-27T15:01:50;99527.47;;;21.12;40.88
44839;BME280;30576;42.098;24.876;2023-02-27T15:04:18;99525.66;;;21.13;41.14
44839;BME280;30576;42.098;24.876;2023-02-27T15:06:52;99487.94;;;20.71;42.75
44839;BME280;30576;42.098;24.876;2023-02-27T15:09:36;99514.44;;;20.91;42.85
44839;BME280;30576;42.098;24.876;2023-02-27T15:12:04;99526.66;;;20.81;43.32
44839;BME280;30576;42.098;24.876;2023-02-27T15:14:35;99507.41;;;20.74;42.39
44839;BME280;30576;42.098;24.876;2023-02-27T15:17:12;99517.06;;;20.77;42.11
44839;BME280;30576;42.098;24.876;2023-02-27T15:19:45;99525.56;;;20.69;42.31
44839;BME280;30576;42.098;24.876;2023-02-27T15:22:20;99542.75;;;20.81;42.38
44839;BME280;30576;42.098;24.876;2023-02-27T15:24:48;99547.00;;;20.69;43.11
44839;BME280;30576;42.098;24.876;2023-02-27T15:27:20;99552.47;;;20.52;43.80
44839;BME280;30576;42.098;24.876;2023-02-27T15:29:52;99575.47;;;20.56;43.59
44839;BME280;30576;42.098;24.876;2023-02-27T15:32:39;99551.78;;;20.48;43.31